Date,TemperatureHighF,TemperatureAvgF,TemperatureLowF,DewpointHighF,DewpointAvgF,DewpointLowF,HumidityHigh,HumidityAvg,HumidityLow,PressureMaxIn,PressureMinIn,WindSpeedMaxMPH,WindSpeedAvgMPH,GustSpeedMaxMPH,PrecipitationSumIn
2013-7-1,77,69,64,68,64,60,89,85,71,29.87,29.75,6,0,6,0.14
2013-7-2,82,72,64,69,65,61,92,80,59,29.97,29.86,4,0,5,0.00
2013-7-3,82,74,68,69,66,64,89,77,58,30.07,29.95,7,0,9,0.14
2013-7-4,71,70,68,68,66,65,91,90,88,30.12,30.03,6,0,6,0.67
2013-7-5,76,71,66,69,66,63,92,86,74,30.11,30.01,7,0,9,0.25
2013-7-6,79,72,68,72,68,64,92,87,72,30.08,29.98,12,0,12,0.58
2013-7-7,82,72,66,69,66,63,91,80,62,30.07,29.97,5,0,5,0.00
2013-7-8,86,77,69,74,69,64,88,77,64,30.08,29.98,6,0,7,0.00
2013-7-9,90,78,73,78,71,68,90,79,60,30.02,29.93,7,0,9,0.30
2013-7-10,88,76,67,78,70,63,90,83,67,29.94,29.77,11,0,12,0.32
2013-7-11,80,72,64,68,63,56,92,75,59,29.98,29.88,0,0,0,0.00
2013-7-12,79,68,59,62,58,54,87,70,46,30.05,29.98,0,0,0,0.00
2013-7-13,83,71,63,68,62,58,85,75,51,30.10,30.01,11,0,11,0.00
2013-7-14,89,79,68,75,69,64,88,74,57,30.16,30.08,7,0,7,0.00
2013-7-15,91,81,73,73,70,68,85,70,50,30.25,30.16,0,0,0,0.00
2013-7-16,93,81,71,76,71,68,91,74,48,30.27,30.19,1,0,1,0.00
2013-7-17,92,81,72,77,73,69,91,77,53,30.26,30.11,2,0,2,0.00
2013-7-18,94,86,73,75,72,68,91,66,46,30.14,29.96,0,0,0,0.00
2013-7-19,90,81,74,77,73,67,91,78,59,29.99,29.84,12,0,12,0.15
2013-7-20,88,75,71,76,70,68,91,85,64,29.87,29.79,5,0,10,0.51
2013-7-21,85,75,68,73,69,65,92,83,64,29.92,29.82,0,0,0,0.00
2013-7-22,78,74,70,72,70,67,90,86,76,29.76,29.71,0,0,0,0.19
2013-7-23,86,74,69,75,69,63,93,84,61,29.77,29.68,8,0,8,0.08
2013-7-24,77,68,61,65,59,54,85,74,54,29.96,29.75,9,0,11,0.00
2013-7-25,77,66,55,59,55,51,88,70,47,30.05,29.96,2,0,2,0.00
2013-7-26,81,69,56,63,58,52,91,71,45,30.05,29.93,0,0,0,0.00
2013-7-27,74,67,63,67,62,58,91,85,72,29.93,29.79,2,0,2,0.50
2013-7-28,73,63,55,58,53,50,90,71,47,30.03,29.86,0,0,0,0.00
2013-7-29,79,66,54,60,56,51,88,71,46,30.15,30.02,0,0,0,0.00
2013-7-30,79,68,57,65,59,53,90,75,47,30.20,30.08,0,0,0,0.00
2013-7-31,75,69,65,67,64,61,90,82,73,30.08,29.90,0,0,0,0.02